Papakura, New Zealand
Current Conditions -  °F | °C
As of 8:00 AM on Thursday 27 Nov 2014 (Local Time) from NZAA Reporting Station
Few Clouds Few Clouds  
Wind Chill: 63°   Ceiling: Unl
Heat Index: 63°   Visibility: 6mi
Dew Point: 54°   Wind: 12mph
Humidity: 72%   Direction: 240°WSW
Pressure: 30"   Gusts: NA
Location:  37.07°S, 174.94°E
Report Text: NZAA 262000Z AUTO 24010KT 9999 FEW025/// 17/12 Q1016 NOSIG
Loading
Personal Weather Stations






























Interactive Weather Map New forecast layout! Learn more

10-Day Weather Forecast

Advertisements
Track Severe Weather on mobile